Osage, Iowa
Current Conditions -  °F | °C
As of 2:15 PM on Friday 28 Nov 2014 (Local Time) from KCCY Reporting Station
Few Clouds Few Clouds  
Wind Chill: 15°   Ceiling: Unl
Heat Index: 27°   Visibility: 10mi
Dew Point: 23°   Wind: 15mph
Humidity: 86%   Direction: 150°SSE
Pressure: 29.83"   Gusts: NA
Location:  43.28°N, 92.81°W
Report Text: KCCY 282015Z AUTO 15013KT 10SM FEW090 M03/M05 A2983 RMK AO2
Loading
Personal Weather Stations






























Interactive Weather Map New forecast layout! Learn more

10-Day Weather Forecast

Advertisements
Track Severe Weather on mobile